Time;durP1;ratioP1;P1;durP2;ratioP2;P2;SDS_P1;SDS_P2;PMS_P1;PMS_P2;Temp;Humidity;BMP_temperature;BMP_pressure;BME280_temperature;BME280_humidity;BME280_pressure;Samples;Min_cycle;Max_cycle;Signal;HPM_P1;HPM_P2
2023/03/07 00:00:49;;;;;;;2.58;0.88;;;4.10;99.90;;;;;;4998973;28;20054;-45
2023/03/07 00:03:15;;;;;;;1.48;0.52;;;4.00;99.90;;;;;;4997087;28;20116;-46
2023/03/07 00:05:41;;;;;;;2.17;0.80;;;4.00;99.90;;;;;;5000843;28;20048;-46
2023/03/07 00:08:07;;;;;;;3.13;0.50;;;4.00;99.90;;;;;;4994636;28;20507;-42
2023/03/07 00:10:33;;;;;;;2.47;1.02;;;4.00;99.90;;;;;;4998842;28;20060;-44
2023/03/07 00:12:59;;;;;;;3.65;0.50;;;4.00;99.90;;;;;;4997779;28;20504;-42
2023/03/07 00:15:25;;;;;;;2.55;0.70;;;4.00;99.90;;;;;;4994784;28;20165;-41
2023/03/07 00:17:50;;;;;;;1.05;0.40;;;4.00;99.90;;;;;;4998365;28;20729;-42
2023/03/07 00:20:16;;;;;;;0.93;0.32;;;3.90;99.90;;;;;;5001956;28;20051;-41
2023/03/07 00:22:43;;;;;;;1.40;0.60;;;3.90;99.90;;;;;;4999477;28;20053;-41
2023/03/07 00:25:09;;;;;;;1.48;0.90;;;3.90;99.90;;;;;;4999454;28;20050;-44
2023/03/07 00:27:35;;;;;;;3.15;0.30;;;3.90;99.90;;;;;;5001985;28;20045;-41
2023/03/07 00:30:05;;;;;;;1.52;0.20;;;3.90;99.90;;;;;;4996600;28;20137;-42
2023/03/07 00:32:31;;;;;;;1.48;0.30;;;3.90;99.90;;;;;;4998630;28;20059;-43
2023/03/07 00:34:58;;;;;;;1.17;0.30;;;3.90;99.90;;;;;;4999953;28;20076;-43
2023/03/07 00:37:24;;;;;;;0.68;0.28;;;3.90;99.90;;;;;;4999526;28;20057;-42
2023/03/07 00:39:50;;;;;;;3.60;0.20;;;3.90;99.90;;;;;;4998868;28;20207;-41
2023/03/07 00:42:16;;;;;;;3.10;0.20;;;3.90;99.90;;;;;;5000028;28;20058;-42
2023/03/07 00:44:41;;;;;;;1.08;0.30;;;3.90;99.90;;;;;;5000277;28;20042;-39
2023/03/07 00:47:07;;;;;;;3.17;0.20;;;3.80;99.90;;;;;;4998702;28;20064;-44
2023/03/07 00:49:33;;;;;;;4.38;0.47;;;3.80;99.90;;;;;;4993219;28;20573;-42
2023/03/07 00:51:59;;;;;;;3.05;0.60;;;3.80;99.90;;;;;;5000510;28;20096;-42
2023/03/07 00:54:25;;;;;;;0.82;0.30;;;3.80;99.90;;;;;;5001477;28;20667;-42
2023/03/07 00:56:51;;;;;;;2.20;0.20;;;3.80;99.90;;;;;;4997696;28;20056;-43
2023/03/07 00:59:16;;;;;;;0.85;0.10;;;3.80;99.90;;;;;;4997723;28;20049;-44
2023/03/07 01:01:42;;;;;;;2.45;0.10;;;3.80;99.90;;;;;;5000095;28;20827;-45
2023/03/07 01:04:08;;;;;;;2.92;0.20;;;3.80;99.90;;;;;;4998149;28;20060;-41
2023/03/07 01:06:34;;;;;;;0.65;0.63;;;3.70;99.90;;;;;;5002472;28;20045;-43
2023/03/07 01:09:03;;;;;;;2.95;0.50;;;3.70;99.90;;;;;;4998269;28;20046;-44
2023/03/07 01:11:30;;;;;;;1.92;0.20;;;3.70;99.90;;;;;;4996011;28;20212;-43
2023/03/07 01:14:00;;;;;;;1.85;0.30;;;3.70;99.90;;;;;;5000206;28;20077;-43
2023/03/07 01:16:32;;;;;;;0.43;0.20;;;3.80;99.90;;;;;;4992771;28;20125;-42
2023/03/07 01:19:00;;;;;;;1.70;0.30;;;3.70;99.90;;;;;;4998522;28;20046;-45
2023/03/07 01:21:31;;;;;;;2.15;0.40;;;3.70;99.90;;;;;;4999676;28;20386;-42
2023/03/07 01:23:57;;;;;;;3.38;1.00;;;3.70;99.90;;;;;;4999565;28;20101;-43
2023/03/07 01:26:26;;;;;;;3.22;0.60;;;3.80;99.90;;;;;;4998906;28;20053;-44
2023/03/07 01:28:54;;;;;;;2.55;0.30;;;3.80;99.90;;;;;;4995214;28;20415;-45
2023/03/07 01:31:20;;;;;;;1.88;0.38;;;3.80;99.90;;;;;;4999717;28;20046;-42
2023/03/07 01:33:50;;;;;;;2.95;0.30;;;3.80;99.90;;;;;;5001042;28;20057;-42
2023/03/07 01:36:24;;;;;;;1.55;0.30;;;3.80;99.90;;;;;;5004787;28;20140;-41
2023/03/07 01:38:54;;;;;;;1.92;0.30;;;3.80;99.90;;;;;;4998654;28;20092;-42
2023/03/07 01:41:20;;;;;;;1.13;0.20;;;3.80;99.90;;;;;;5011130;28;20053;-42
2023/03/07 01:43:46;;;;;;;1.23;0.13;;;3.80;99.90;;;;;;4997220;28;20190;-43
2023/03/07 01:46:20;;;;;;;1.02;0.20;;;3.80;99.90;;;;;;5001988;28;20499;-42
2023/03/07 01:48:55;;;;;;;2.00;0.32;;;3.70;99.90;;;;;;5000464;28;20054;-41
2023/03/07 01:51:22;;;;;;;4.72;0.30;;;3.70;99.90;;;;;;5002370;28;20058;-44
2023/03/07 01:53:51;;;;;;;2.30;0.30;;;3.70;99.90;;;;;;5004885;28;20392;-41
2023/03/07 01:56:17;;;;;;;3.95;0.75;;;3.70;99.90;;;;;;5003870;28;20061;-43
2023/03/07 01:58:43;;;;;;;3.55;0.50;;;3.60;99.90;;;;;;4999717;28;20049;-44
2023/03/07 02:01:12;;;;;;;3.90;0.40;;;3.60;99.90;;;;;;5000594;28;20900;-42
2023/03/07 02:03:47;;;;;;;6.80;0.32;;;3.60;99.90;;;;;;5005930;28;20080;-42
2023/03/07 02:06:13;;;;;;;3.40;0.50;;;3.60;99.90;;;;;;4999785;28;20488;-42
2023/03/07 02:08:40;;;;;;;2.03;0.38;;;3.60;99.90;;;;;;4997263;28;20181;-42
2023/03/07 02:11:07;;;;;;;4.97;0.30;;;3.60;99.90;;;;;;5000061;28;20061;-41
2023/03/07 02:13:34;;;;;;;1.80;0.32;;;3.60;99.90;;;;;;4995954;28;20138;-41
2023/03/07 02:16:02;;;;;;;3.88;0.40;;;3.60;99.90;;;;;;5002331;28;20057;-42
2023/03/07 02:18:31;;;;;;;6.32;0.40;;;3.60;99.90;;;;;;4991766;28;20056;-46
2023/03/07 02:21:11;;;;;;;6.30;0.50;;;3.60;99.90;;;;;;5002015;28;20057;-46
2023/03/07 02:24:01;;;;;;;1.30;0.20;;;3.60;99.90;;;;;;5002596;28;20069;-43
2023/03/07 02:26:29;;;;;;;5.22;0.40;;;3.60;99.90;;;;;;5000855;28;20056;-49
2023/03/07 02:28:57;;;;;;;7.35;1.05;;;3.60;99.90;;;;;;5004635;28;20061;-44
2023/03/07 02:31:23;;;;;;;5.22;0.75;;;3.60;99.90;;;;;;5001222;28;20061;-42
2023/03/07 02:33:49;;;;;;;2.92;0.30;;;3.60;99.90;;;;;;4995275;28;20046;-41
2023/03/07 02:36:28;;;;;;;6.88;0.40;;;3.60;99.90;;;;;;5013038;28;20155;-41
2023/03/07 02:38:56;;;;;;;5.18;0.50;;;3.60;99.90;;;;;;5004569;28;20161;-45
2023/03/07 02:41:27;;;;;;;3.65;0.30;;;3.60;99.90;;;;;;5000002;28;20128;-41
2023/03/07 02:43:52;;;;;;;7.22;0.73;;;3.60;99.90;;;;;;5012802;28;20077;-45
2023/03/07 02:46:19;;;;;;;3.55;0.30;;;3.60;99.90;;;;;;5001265;28;20142;-43
2023/03/07 02:48:45;;;;;;;4.55;0.68;;;3.60;99.90;;;;;;5004386;28;20479;-45
2023/03/07 02:51:10;;;;;;;7.65;1.60;;;3.60;99.90;;;;;;5003072;28;20069;-41
2023/03/07 02:53:36;;;;;;;9.88;0.93;;;3.60;99.90;;;;;;5000265;28;20494;-43
2023/03/07 02:56:02;;;;;;;3.25;0.35;;;3.60;99.90;;;;;;4994359;28;20694;-43
2023/03/07 02:58:28;;;;;;;5.75;0.65;;;3.60;99.90;;;;;;4997728;28;20057;-43
2023/03/07 03:00:54;;;;;;;4.75;0.47;;;3.60;99.90;;;;;;4999728;28;20141;-43
2023/03/07 03:03:20;;;;;;;5.97;0.40;;;3.60;99.90;;;;;;5003109;28;20073;-43
2023/03/07 03:05:46;;;;;;;4.07;0.52;;;3.60;99.90;;;;;;5002878;28;20567;-42
2023/03/07 03:08:12;;;;;;;2.45;1.17;;;3.60;99.90;;;;;;5000153;28;20053;-42
2023/03/07 03:10:38;;;;;;;4.93;0.40;;;3.50;99.90;;;;;;5003662;28;20049;-43
2023/03/07 03:13:03;;;;;;;2.63;0.30;;;3.60;99.90;;;;;;5002217;28;20773;-43
2023/03/07 03:15:29;;;;;;;3.05;0.70;;;3.60;99.90;;;;;;5002956;28;20469;-42
2023/03/07 03:17:55;;;;;;;4.65;0.50;;;3.60;99.90;;;;;;4995721;28;21743;-41
2023/03/07 03:20:21;;;;;;;4.53;0.40;;;3.60;99.90;;;;;;4998793;28;20748;-42
2023/03/07 03:22:47;;;;;;;6.75;0.68;;;3.60;99.90;;;;;;5002070;28;20049;-42
2023/03/07 03:25:13;;;;;;;6.50;0.60;;;3.60;99.90;;;;;;5001978;28;20049;-44
2023/03/07 03:27:40;;;;;;;7.32;0.30;;;3.60;99.90;;;;;;4999373;28;20160;-44
2023/03/07 03:30:09;;;;;;;3.30;0.43;;;3.70;99.90;;;;;;5000794;28;20482;-42
2023/03/07 03:32:39;;;;;;;5.80;0.40;;;3.70;99.90;;;;;;5004172;28;20092;-45
2023/03/07 03:35:06;;;;;;;4.10;0.50;;;3.70;99.90;;;;;;5001883;28;20046;-45
2023/03/07 03:37:32;;;;;;;5.38;0.98;;;3.70;99.90;;;;;;4999015;28;20561;-42
2023/03/07 03:39:58;;;;;;;5.38;0.70;;;3.70;99.90;;;;;;4992567;28;20419;-42
2023/03/07 03:42:24;;;;;;;7.97;0.22;;;3.80;99.90;;;;;;4996142;28;20488;-42
2023/03/07 03:44:49;;;;;;;9.57;0.70;;;3.80;99.90;;;;;;5001509;28;20064;-43
2023/03/07 03:47:15;;;;;;;5.45;0.60;;;3.80;99.90;;;;;;5001033;28;20576;-45
2023/03/07 03:49:41;;;;;;;4.38;0.50;;;3.80;99.90;;;;;;4999559;28;20570;-43
2023/03/07 03:52:07;;;;;;;3.60;0.30;;;3.80;99.90;;;;;;5001585;28;20084;-42
2023/03/07 03:54:32;;;;;;;4.32;0.32;;;3.80;99.90;;;;;;4999354;28;20044;-42
2023/03/07 03:56:58;;;;;;;4.68;0.40;;;3.80;99.90;;;;;;4997149;28;20496;-42
2023/03/07 03:59:24;;;;;;;2.53;0.22;;;3.80;99.90;;;;;;4998815;28;20189;-42
2023/03/07 04:01:50;;;;;;;3.08;0.40;;;3.80;99.90;;;;;;4997316;28;20076;-42
2023/03/07 04:04:15;;;;;;;2.25;0.20;;;3.80;99.90;;;;;;4999318;28;21532;-45
2023/03/07 04:06:41;;;;;;;4.93;0.40;;;3.80;99.90;;;;;;4990283;28;20050;-43
2023/03/07 04:09:08;;;;;;;6.90;0.65;;;3.90;99.90;;;;;;5000313;28;20052;-42
2023/03/07 04:11:34;;;;;;;3.88;0.32;;;3.90;99.90;;;;;;5000705;28;20123;-42
2023/03/07 04:14:01;;;;;;;0.90;0.20;;;3.90;99.90;;;;;;5002868;28;20046;-41
2023/03/07 04:16:27;;;;;;;3.97;0.30;;;3.90;99.90;;;;;;4999130;28;20053;-42
2023/03/07 04:18:53;;;;;;;3.75;0.40;;;3.90;99.90;;;;;;5000671;28;20116;-42
2023/03/07 04:21:20;;;;;;;6.95;0.60;;;4.00;99.90;;;;;;5000144;28;20053;-44
2023/03/07 04:23:48;;;;;;;3.67;0.30;;;4.00;99.90;;;;;;5001222;28;20053;-42
2023/03/07 04:26:15;;;;;;;2.83;0.25;;;4.00;99.90;;;;;;5002433;28;20084;-40
2023/03/07 04:28:44;;;;;;;2.80;0.30;;;4.00;99.90;;;;;;4997350;28;20093;-41
2023/03/07 04:31:18;;;;;;;3.65;0.30;;;4.00;99.90;;;;;;4999063;28;20123;-41
2023/03/07 04:33:45;;;;;;;5.47;0.47;;;4.00;99.90;;;;;;4998156;28;20050;-46
2023/03/07 04:36:11;;;;;;;1.75;0.20;;;4.00;99.90;;;;;;4998682;28;20062;-42
2023/03/07 04:38:38;;;;;;;2.90;0.30;;;4.00;99.90;;;;;;4999320;28;20462;-42
2023/03/07 04:41:07;;;;;;;3.22;0.22;;;3.90;99.90;;;;;;4999659;28;20087;-42
2023/03/07 04:43:33;;;;;;;3.20;0.30;;;3.90;99.90;;;;;;5000158;28;20057;-41
2023/03/07 04:45:59;;;;;;;5.72;0.82;;;3.90;99.90;;;;;;4997585;28;20207;-42
2023/03/07 04:48:25;;;;;;;6.25;0.57;;;3.90;99.90;;;;;;5001901;28;20514;-42
2023/03/07 04:50:51;;;;;;;4.90;0.50;;;3.90;99.90;;;;;;4990505;28;20145;-42
2023/03/07 04:53:18;;;;;;;1.60;0.47;;;3.80;99.90;;;;;;4999005;28;20046;-44
2023/03/07 04:55:43;;;;;;;4.50;0.60;;;3.80;99.90;;;;;;4995756;28;20141;-42
2023/03/07 04:58:11;;;;;;;4.70;0.73;;;3.80;99.90;;;;;;4997702;28;20444;-35
2023/03/07 05:00:42;;;;;;;3.50;0.65;;;3.80;99.90;;;;;;5000194;28;20053;-36
2023/03/07 05:03:08;;;;;;;4.40;0.65;;;3.70;99.90;;;;;;4999065;28;20282;-35
2023/03/07 05:05:34;;;;;;;2.08;0.30;;;3.70;99.90;;;;;;4999626;28;20054;-37
2023/03/07 05:08:00;;;;;;;8.57;0.35;;;3.70;99.90;;;;;;5000216;28;20125;-36
2023/03/07 05:10:26;;;;;;;5.53;0.40;;;3.60;99.90;;;;;;4996628;28;20048;-36
2023/03/07 05:12:52;;;;;;;3.05;0.35;;;3.60;99.90;;;;;;4999089;28;20141;-36
2023/03/07 05:15:18;;;;;;;4.40;0.43;;;3.60;99.90;;;;;;4999101;28;20160;-37
2023/03/07 05:17:43;;;;;;;2.97;0.40;;;3.50;99.90;;;;;;4999032;28;20049;-36
2023/03/07 05:20:11;;;;;;;2.67;0.30;;;3.50;99.90;;;;;;4994300;28;20065;-36
2023/03/07 05:22:37;;;;;;;5.32;0.45;;;3.50;99.90;;;;;;4996133;28;20137;-36
2023/03/07 05:25:03;;;;;;;7.93;0.55;;;3.50;99.90;;;;;;5001753;28;20076;-35
2023/03/07 05:27:29;;;;;;;4.38;0.73;;;3.50;99.90;;;;;;5000687;28;20061;-36
2023/03/07 05:29:55;;;;;;;3.35;0.38;;;3.50;99.90;;;;;;5000572;28;20058;-35
2023/03/07 05:32:20;;;;;;;2.38;0.40;;;3.40;99.90;;;;;;5000490;28;20064;-36
2023/03/07 05:34:47;;;;;;;3.50;0.25;;;3.40;99.90;;;;;;4998621;28;20053;-35
2023/03/07 05:37:13;;;;;;;2.75;0.40;;;3.50;99.90;;;;;;4996969;28;20042;-36
2023/03/07 05:39:38;;;;;;;4.78;0.47;;;3.50;99.90;;;;;;4995335;28;20125;-36
2023/03/07 05:42:04;;;;;;;5.50;0.30;;;3.50;99.90;;;;;;4996591;28;20061;-35
2023/03/07 05:44:30;;;;;;;6.22;0.88;;;3.50;99.90;;;;;;4997789;28;20042;-36
2023/03/07 05:46:56;;;;;;;2.53;0.40;;;3.50;99.90;;;;;;5000451;28;20053;-36
2023/03/07 05:49:23;;;;;;;4.20;0.40;;;3.50;99.90;;;;;;4994648;28;20050;-35
2023/03/07 05:51:49;;;;;;;4.95;0.55;;;3.50;99.90;;;;;;4996300;28;20068;-44
2023/03/07 05:54:15;;;;;;;4.00;0.43;;;3.50;99.90;;;;;;4990804;28;20062;-35
2023/03/07 05:56:41;;;;;;;6.45;0.63;;;3.60;99.90;;;;;;4996033;28;20724;-35
2023/03/07 05:59:10;;;;;;;4.68;0.88;;;3.60;99.90;;;;;;4991671;28;20083;-35
2023/03/07 06:01:35;;;;;;;6.82;0.68;;;3.60;99.90;;;;;;4999023;28;20058;-36
2023/03/07 06:04:01;;;;;;;6.30;0.60;;;3.60;99.90;;;;;;4994962;28;20563;-35
2023/03/07 06:06:27;;;;;;;4.55;0.32;;;3.60;99.90;;;;;;4997414;28;22243;-36
2023/03/07 06:08:53;;;;;;;10.30;0.70;;;3.60;99.90;;;;;;4996872;28;20081;-36
2023/03/07 06:11:18;;;;;;;4.55;1.13;;;3.60;99.90;;;;;;4997369;28;20195;-35
2023/03/07 06:13:44;;;;;;;5.63;1.23;;;3.60;99.90;;;;;;4995740;28;20046;-36
2023/03/07 06:16:10;;;;;;;4.93;0.68;;;3.70;99.90;;;;;;4992942;28;20038;-36
2023/03/07 06:18:35;;;;;;;4.78;1.13;;;3.60;99.90;;;;;;5000981;28;20137;-36
2023/03/07 06:21:04;;;;;;;3.72;0.57;;;3.70;99.90;;;;;;4998146;28;20057;-36
2023/03/07 06:23:32;;;;;;;3.33;0.50;;;3.70;99.90;;;;;;4999834;28;20571;-36
2023/03/07 06:25:58;;;;;;;7.32;1.15;;;3.70;99.90;;;;;;4999286;28;20068;-36
2023/03/07 06:28:24;;;;;;;6.32;0.47;;;3.70;99.90;;;;;;5000934;28;20057;-36
2023/03/07 06:30:50;;;;;;;4.25;0.32;;;3.70;99.90;;;;;;5003177;28;20088;-36
2023/03/07 06:33:16;;;;;;;5.65;0.68;;;3.70;99.90;;;;;;5002392;28;20083;-36
2023/03/07 06:35:42;;;;;;;3.72;0.52;;;3.70;99.90;;;;;;5002324;28;20131;-36
2023/03/07 06:38:09;;;;;;;2.53;0.30;;;3.50;99.90;;;;;;4998849;28;20499;-36
2023/03/07 06:40:35;;;;;;;4.13;0.40;;;3.30;99.90;;;;;;4993764;28;20041;-36
2023/03/07 06:43:01;;;;;;;2.78;0.20;;;3.00;99.90;;;;;;5010108;28;20042;-36
2023/03/07 06:45:26;;;;;;;4.45;0.30;;;2.80;99.90;;;;;;4999178;28;20062;-36
2023/03/07 06:47:52;;;;;;;4.95;0.57;;;2.70;99.90;;;;;;4999742;28;20077;-36
2023/03/07 06:50:18;;;;;;;2.85;0.50;;;2.60;99.90;;;;;;5001001;28;20054;-36
2023/03/07 06:52:44;;;;;;;2.72;0.77;;;2.60;99.90;;;;;;5002089;28;20050;-35
2023/03/07 06:55:10;;;;;;;4.63;0.20;;;2.50;99.90;;;;;;4996497;28;20136;-36
2023/03/07 06:57:36;;;;;;;4.07;0.30;;;2.60;99.90;;;;;;5000863;28;20046;-35
2023/03/07 07:00:04;;;;;;;3.33;0.88;;;2.60;99.90;;;;;;4998456;28;20061;-36
2023/03/07 07:02:31;;;;;;;3.55;0.17;;;2.70;99.90;;;;;;5001481;28;20053;-34
2023/03/07 07:04:57;;;;;;;3.88;0.57;;;2.90;99.90;;;;;;4996729;28;20054;-35
2023/03/07 07:07:23;;;;;;;4.70;0.40;;;2.90;99.90;;;;;;5002037;28;20092;-36
2023/03/07 07:09:49;;;;;;;2.05;0.52;;;3.00;99.90;;;;;;5003457;28;20061;-35
2023/03/07 07:12:15;;;;;;;2.10;0.25;;;3.00;99.90;;;;;;5001233;28;20759;-35
2023/03/07 07:14:41;;;;;;;2.83;0.20;;;2.90;99.90;;;;;;4994608;28;20046;-36
2023/03/07 07:17:07;;;;;;;2.15;0.20;;;2.90;99.90;;;;;;4998428;28;20644;-36
2023/03/07 07:19:33;;;;;;;2.67;0.20;;;2.80;99.90;;;;;;5001449;28;20415;-36
2023/03/07 07:21:58;;;;;;;6.57;1.20;;;2.80;99.90;;;;;;5006043;28;20073;-35
2023/03/07 07:24:24;;;;;;;6.55;1.00;;;2.70;99.90;;;;;;5004391;28;20065;-35
2023/03/07 07:26:50;;;;;;;7.05;1.17;;;2.60;99.90;;;;;;5001568;28;20046;-36
2023/03/07 07:29:15;;;;;;;7.93;0.65;;;2.60;99.90;;;;;;5001578;28;20050;-36
2023/03/07 07:31:41;;;;;;;5.18;0.80;;;2.50;99.90;;;;;;5005901;28;20050;-35
2023/03/07 07:34:07;;;;;;;6.07;0.40;;;2.50;99.90;;;;;;4997257;28;20053;-35
2023/03/07 07:36:33;;;;;;;2.55;0.50;;;2.40;99.90;;;;;;5000586;28;20073;-36
2023/03/07 07:39:04;;;;;;;7.00;0.50;;;2.40;99.90;;;;;;4996257;28;20057;-37
2023/03/07 07:41:31;;;;;;;1.58;0.30;;;2.40;99.90;;;;;;4996190;28;20050;-37
2023/03/07 07:43:57;;;;;;;4.25;0.40;;;2.40;99.90;;;;;;5002384;28;20446;-37
2023/03/07 07:46:23;;;;;;;5.07;0.55;;;2.40;99.90;;;;;;5005608;28;20060;-37
2023/03/07 07:48:49;;;;;;;3.03;0.32;;;2.40;99.90;;;;;;5017171;28;20451;-37
2023/03/07 07:51:15;;;;;;;2.80;0.40;;;2.50;99.90;;;;;;5002502;28;20061;-48
2023/03/07 07:53:41;;;;;;;0.90;0.20;;;2.50;99.90;;;;;;5004217;28;20112;-44
2023/03/07 07:56:07;;;;;;;4.88;0.30;;;2.50;99.90;;;;;;5004518;28;20065;-48
2023/03/07 07:58:32;;;;;;;3.83;0.40;;;2.60;99.90;;;;;;5016558;28;20099;-47
2023/03/07 08:00:59;;;;;;;2.03;0.30;;;2.60;99.90;;;;;;5002051;28;20164;-44
2023/03/07 08:03:24;;;;;;;8.15;0.50;;;2.60;99.90;;;;;;5002687;28;20046;-42
2023/03/07 08:05:50;;;;;;;3.80;0.43;;;2.60;99.90;;;;;;5001646;28;20419;-43
2023/03/07 08:08:18;;;;;;;2.58;0.22;;;2.60;99.90;;;;;;5001458;28;20046;-46
2023/03/07 08:10:45;;;;;;;3.88;0.40;;;2.60;99.90;;;;;;5004682;28;21148;-44
2023/03/07 08:13:16;;;;;;;6.18;0.63;;;2.70;99.90;;;;;;5000691;28;20171;-47
2023/03/07 08:15:42;;;;;;;6.35;0.55;;;2.70;99.90;;;;;;4996861;28;20046;-44
2023/03/07 08:18:09;;;;;;;5.68;0.30;;;2.70;99.90;;;;;;5000005;28;20045;-44
2023/03/07 08:20:37;;;;;;;1.50;0.30;;;2.80;99.90;;;;;;5017513;28;20049;-35
2023/03/07 08:23:03;;;;;;;3.78;0.82;;;2.80;99.90;;;;;;5004560;28;20053;-36
2023/03/07 08:25:29;;;;;;;4.82;0.50;;;2.90;99.90;;;;;;5019006;28;20057;-36
2023/03/07 08:27:55;;;;;;;7.07;0.60;;;2.90;99.90;;;;;;5003180;28;20492;-36
2023/03/07 08:30:25;;;;;;;3.25;0.40;;;3.00;99.90;;;;;;5003237;28;20069;-36
2023/03/07 08:32:52;;;;;;;5.85;0.47;;;3.00;99.90;;;;;;4999769;28;20522;-36
2023/03/07 08:35:18;;;;;;;3.15;0.50;;;3.10;99.90;;;;;;5004150;28;20054;-36
2023/03/07 08:37:44;;;;;;;4.55;0.40;;;3.10;99.90;;;;;;4997019;28;20057;-36
2023/03/07 08:40:11;;;;;;;11.52;0.63;;;3.20;99.90;;;;;;5001808;28;20157;-36
2023/03/07 08:42:36;;;;;;;6.55;0.80;;;3.20;99.90;;;;;;4996872;28;20034;-35
2023/03/07 08:45:02;;;;;;;2.90;0.45;;;3.20;99.90;;;;;;5000533;28;20042;-36
2023/03/07 08:47:28;;;;;;;1.10;0.28;;;3.30;99.90;;;;;;5003199;28;20074;-36
2023/03/07 08:49:54;;;;;;;3.70;0.52;;;3.30;99.90;;;;;;5001746;28;20092;-36
2023/03/07 08:52:19;;;;;;;6.45;0.60;;;3.30;99.90;;;;;;5002426;28;20232;-36
2023/03/07 08:54:45;;;;;;;3.58;0.60;;;3.40;99.90;;;;;;5001903;28;20472;-37
2023/03/07 08:57:11;;;;;;;4.20;0.40;;;3.40;99.90;;;;;;4997598;28;20053;-36
2023/03/07 08:59:36;;;;;;;2.72;0.40;;;3.50;99.90;;;;;;5003044;28;20407;-37
2023/03/07 09:02:02;;;;;;;8.73;0.80;;;3.50;99.90;;;;;;5003552;28;20046;-44
2023/03/07 09:04:28;;;;;;;5.93;0.50;;;3.60;99.90;;;;;;4996834;28;20046;-46
2023/03/07 09:06:55;;;;;;;4.78;0.32;;;3.60;99.90;;;;;;4999777;28;20102;-37
2023/03/07 09:09:21;;;;;;;6.35;0.95;;;3.70;99.90;;;;;;5004902;28;20052;-37
2023/03/07 09:11:47;;;;;;;6.93;0.43;;;3.70;99.90;;;;;;5001199;28;20066;-37
2023/03/07 09:14:13;;;;;;;3.53;0.45;;;3.70;99.90;;;;;;5000103;28;20136;-37
2023/03/07 09:16:38;;;;;;;7.07;0.77;;;3.80;99.90;;;;;;5002270;28;20409;-37
2023/03/07 09:19:04;;;;;;;5.18;0.73;;;3.80;99.90;;;;;;4998052;28;20107;-37
2023/03/07 09:21:30;;;;;;;3.92;0.82;;;3.90;99.90;;;;;;5001547;28;20065;-37
2023/03/07 09:23:56;;;;;;;6.55;0.98;;;4.00;99.90;;;;;;5015639;28;20760;-37
2023/03/07 09:26:22;;;;;;;3.55;0.50;;;4.00;99.90;;;;;;5003454;28;20089;-40
2023/03/07 09:28:48;;;;;;;6.78;1.00;;;4.00;99.90;;;;;;4999801;28;20057;-37
2023/03/07 09:31:14;;;;;;;2.88;0.50;;;3.90;99.90;;;;;;5003819;28;20061;-37
2023/03/07 09:33:41;;;;;;;7.38;0.93;;;3.90;99.90;;;;;;4995726;28;20058;-37
2023/03/07 09:36:08;;;;;;;2.58;0.50;;;3.90;99.90;;;;;;4998944;28;20492;-37
2023/03/07 09:38:35;;;;;;;5.32;0.65;;;3.90;99.90;;;;;;5002527;28;20058;-36
2023/03/07 09:41:25;;;;;;;5.38;0.68;;;3.90;99.90;;;;;;5003242;28;20052;-37
2023/03/07 09:44:03;;;;;;;6.47;0.70;;;3.90;99.90;;;;;;4999515;28;20057;-37
2023/03/07 09:46:50;;;;;;;1.98;0.68;;;3.90;99.90;;;;;;5003499;28;20049;-37
2023/03/07 09:49:25;;;;;;;1.80;0.65;;;4.00;99.90;;;;;;5003494;28;20567;-37
2023/03/07 09:51:56;;;;;;;1.83;0.30;;;4.00;99.90;;;;;;4999444;28;20175;-37
2023/03/07 09:54:49;;;;;;;2.17;0.35;;;4.00;99.90;;;;;;5002049;28;20420;-37
2023/03/07 09:57:31;;;;;;;0.95;0.20;;;4.10;99.90;;;;;;4985973;28;20061;-37
2023/03/07 10:00:22;;;;;;;0.80;0.10;;;4.10;99.90;;;;;;5001095;28;20046;-37
2023/03/07 10:03:29;;;;;;;0.63;0.10;;;4.10;99.90;;;;;;4995156;28;20088;-37
2023/03/07 10:06:02;;;;;;;0.50;0.10;;;4.10;99.90;;;;;;4928664;28;20063;-37
2023/03/07 10:08:32;;;;;;;1.83;0.30;;;4.10;99.90;;;;;;4992484;28;20062;-45
2023/03/07 10:11:07;;;;;;;2.63;0.20;;;4.10;99.90;;;;;;4992629;28;20086;-48
2023/03/07 10:13:51;;;;;;;0.40;0.13;;;4.20;99.90;;;;;;5001360;28;20056;-42
2023/03/07 10:16:31;;;;;;;0.85;0.20;;;4.20;99.90;;;;;;5004762;28;20597;-44
2023/03/07 10:19:14;;;;;;;0.63;0.17;;;4.30;99.90;;;;;;5003042;28;20046;-42
2023/03/07 10:22:08;;;;;;;0.82;0.05;;;4.40;99.90;;;;;;5002636;28;20395;-37
2023/03/07 10:24:40;;;;;;;;;;;4.50;99.90;;;;;;5009558;28;20062;-37
2023/03/07 10:27:09;;;;;;;0.70;0.28;;;4.50;99.90;;;;;;5009148;28;20013;-37
2023/03/07 10:29:44;;;;;;;2.47;0.20;;;4.50;99.90;;;;;;5010409;28;20053;-37
2023/03/07 10:32:22;;;;;;;0.50;0.10;;;4.60;99.90;;;;;;5003770;28;20175;-37
2023/03/07 10:35:09;;;;;;;0.80;0.17;;;4.60;99.90;;;;;;5007816;28;20053;-37
2023/03/07 10:37:50;;;;;;;2.33;0.10;;;4.70;99.90;;;;;;5004249;28;20069;-38
2023/03/07 10:40:38;;;;;;;2.38;0.28;;;4.70;99.90;;;;;;5001819;28;20093;-37
2023/03/07 10:43:05;;;;;;;4.28;0.28;;;4.70;99.90;;;;;;5005831;28;20462;-37
2023/03/07 10:45:32;;;;;;;0.35;0.10;;;4.80;99.90;;;;;;5004930;28;20073;-37
2023/03/07 10:48:04;;;;;;;1.33;0.15;;;4.80;99.90;;;;;;5013351;28;20369;-37
2023/03/07 10:50:41;;;;;;;4.03;0.90;;;4.90;99.90;;;;;;5007692;28;20104;-37
2023/03/07 10:53:39;;;;;;;2.00;0.15;;;5.00;99.90;;;;;;5000069;28;20081;-37
2023/03/07 10:56:11;;;;;;;4.30;0.25;;;5.00;99.90;;;;;;4992592;28;20139;-37
2023/03/07 10:58:37;;;;;;;1.95;0.20;;;5.10;99.90;;;;;;4999863;28;20488;-37
2023/03/07 11:01:06;;;;;;;4.47;0.35;;;5.10;99.90;;;;;;5003780;28;20057;-38
2023/03/07 11:03:51;;;;;;;0.90;0.30;;;5.10;99.90;;;;;;5006097;28;20080;-37
2023/03/07 11:06:33;;;;;;;2.60;0.30;;;5.20;99.90;;;;;;5003573;28;20050;-37
2023/03/07 11:09:17;;;;;;;0.73;0.13;;;5.30;99.90;;;;;;5004133;28;20088;-37
2023/03/07 11:11:49;;;;;;;5.13;0.65;;;5.40;99.90;;;;;;5005977;28;20407;-36
2023/03/07 11:14:15;;;;;;;1.58;0.15;;;5.40;99.90;;;;;;5002832;28;20066;-36
2023/03/07 11:16:48;;;;;;;2.22;0.25;;;5.40;99.90;;;;;;5002106;28;20049;-36
2023/03/07 11:19:28;;;;;;;2.67;0.20;;;5.40;99.90;;;;;;5001217;28;20065;-36
2023/03/07 11:21:55;;;;;;;1.77;0.57;;;5.40;99.90;;;;;;5003160;28;20558;-37
2023/03/07 11:24:30;;;;;;;1.75;0.20;;;5.40;99.90;;;;;;5003840;28;20480;-37
2023/03/07 11:26:57;;;;;;;3.50;0.35;;;5.40;99.90;;;;;;4997973;28;20103;-38
2023/03/07 11:29:24;;;;;;;2.95;0.60;;;5.40;99.90;;;;;;5003109;28;20060;-36
2023/03/07 11:32:17;;;;;;;3.30;0.30;;;5.30;99.90;;;;;;5013000;28;20092;-36
2023/03/07 11:34:50;;;;;;;1.15;0.13;;;5.40;99.90;;;;;;5000552;28;20076;-43
2023/03/07 11:37:30;;;;;;;2.85;0.30;;;5.40;99.90;;;;;;4999131;28;20546;-35
2023/03/07 11:40:19;;;;;;;3.58;0.30;;;5.50;99.90;;;;;;5004404;28;20095;-35
2023/03/07 11:42:59;;;;;;;2.42;0.17;;;5.50;99.90;;;;;;5005773;28;20038;-36
2023/03/07 11:45:33;;;;;;;2.42;0.40;;;5.50;99.90;;;;;;5005579;28;20053;-35
2023/03/07 11:48:24;;;;;;;7.55;0.55;;;5.50;99.90;;;;;;5003313;28;20101;-35
2023/03/07 11:50:56;;;;;;;1.83;0.30;;;5.60;99.80;;;;;;4995288;28;20058;-35
2023/03/07 11:53:59;;;;;;;2.53;0.35;;;5.70;99.90;;;;;;5005685;28;20092;-37
2023/03/07 11:56:25;;;;;;;1.35;0.20;;;5.80;99.00;;;;;;5002486;28;20067;-35
2023/03/07 11:58:53;;;;;;;5.18;0.35;;;5.80;99.00;;;;;;5006497;28;20054;-37
2023/03/07 12:01:34;;;;;;;4.60;0.52;;;5.90;98.70;;;;;;5003270;28;20053;-36
2023/03/07 12:04:15;;;;;;;4.45;0.30;;;6.00;98.70;;;;;;5004413;28;20050;-36
2023/03/07 12:07:20;;;;;;;2.08;0.40;;;6.00;97.50;;;;;;5001355;28;20050;-36
2023/03/07 12:10:19;;;;;;;7.15;0.30;;;6.10;94.40;;;;;;5005226;28;20160;-35
2023/03/07 12:13:02;;;;;;;1.73;0.25;;;6.20;96.20;;;;;;5005022;28;20104;-41
2023/03/07 12:15:39;;;;;;;1.90;0.30;;;6.20;95.80;;;;;;5002441;28;20060;-41
2023/03/07 12:18:30;;;;;;;4.18;0.93;;;6.10;93.20;;;;;;5005728;28;20145;-41
2023/03/07 12:21:21;;;;;;;1.40;0.30;;;6.00;93.70;;;;;;5002754;28;20050;-41
2023/03/07 12:23:54;;;;;;;6.70;0.45;;;6.00;94.20;;;;;;5003479;28;20115;-41
2023/03/07 12:26:25;;;;;;;2.00;0.20;;;6.00;94.20;;;;;;5001483;28;20491;-41
2023/03/07 12:29:09;;;;;;;5.78;0.88;;;6.00;93.20;;;;;;5002582;28;20050;-42
2023/03/07 12:31:42;;;;;;;4.95;0.30;;;5.90;93.10;;;;;;5017329;28;20492;-42
2023/03/07 12:34:26;;;;;;;2.15;0.28;;;6.00;93.20;;;;;;5001805;28;20255;-41
2023/03/07 12:37:19;;;;;;;1.92;0.20;;;6.00;93.40;;;;;;5005426;28;20137;-36
2023/03/07 12:39:51;;;;;;;6.55;0.40;;;6.00;93.80;;;;;;5000275;28;20049;-36
2023/03/07 12:42:37;;;;;;;4.25;0.52;;;6.00;93.60;;;;;;5002288;28;20480;-36
2023/03/07 12:45:16;;;;;;;4.80;0.43;;;6.00;92.80;;;;;;4994856;28;20766;-36
2023/03/07 12:47:56;;;;;;;4.55;0.30;;;6.00;93.40;;;;;;5012564;28;20601;-35
2023/03/07 12:50:43;;;;;;;1.85;0.20;;;5.90;93.20;;;;;;5002781;28;20053;-35
2023/03/07 12:53:11;;;;;;;5.40;0.40;;;5.90;94.00;;;;;;5001172;28;20125;-35
2023/03/07 12:55:46;;;;;;;3.30;0.40;;;5.80;93.20;;;;;;5003225;28;20046;-35
2023/03/07 12:58:27;;;;;;;2.65;0.32;;;5.80;91.70;;;;;;5003361;28;20048;-35
2023/03/07 13:01:00;;;;;;;4.47;0.55;;;5.70;95.50;;;;;;4994517;28;20047;-36
2023/03/07 13:03:40;;;;;;;2.92;0.30;;;5.70;95.00;;;;;;5006357;28;20083;-36
2023/03/07 13:06:12;;;;;;;1.95;0.30;;;5.60;95.50;;;;;;5005467;28;20054;-36
2023/03/07 13:08:39;;;;;;;3.60;0.30;;;5.50;96.30;;;;;;5002306;28;20054;-37
2023/03/07 13:11:05;;;;;;;3.53;0.30;;;5.40;98.10;;;;;;5004624;28;20046;-36